sensor_id;sensor_type;location;lat;lon;timestamp;temperature;humidity
8707;DHT22;4390;49.302;9.306;2023-05-20T00:00:21;14.20;89.20
8707;DHT22;4390;49.302;9.306;2023-05-20T00:02:48;14.20;89.30
8707;DHT22;4390;49.302;9.306;2023-05-20T00:05:15;14.00;89.60
8707;DHT22;4390;49.302;9.306;2023-05-20T00:07:42;14.10;89.50
8707;DHT22;4390;49.302;9.306;2023-05-20T00:10:09;14.10;89.60
8707;DHT22;4390;49.302;9.306;2023-05-20T00:12:39;14.00;89.70
8707;DHT22;4390;49.302;9.306;2023-05-20T00:15:06;13.90;90.00
8707;DHT22;4390;49.302;9.306;2023-05-20T00:17:33;14.00;90.00
8707;DHT22;4390;49.302;9.306;2023-05-20T00:20:01;13.90;90.00
8707;DHT22;4390;49.302;9.306;2023-05-20T00:22:28;13.70;90.40
8707;DHT22;4390;49.302;9.306;2023-05-20T00:24:54;13.60;90.80
8707;DHT22;4390;49.302;9.306;2023-05-20T00:27:21;13.60;90.90
8707;DHT22;4390;49.302;9.306;2023-05-20T00:29:48;13.50;91.00
8707;DHT22;4390;49.302;9.306;2023-05-20T00:32:15;13.40;91.50
8707;DHT22;4390;49.302;9.306;2023-05-20T00:34:42;13.30;91.50
8707;DHT22;4390;49.302;9.306;2023-05-20T00:37:09;13.30;91.70
8707;DHT22;4390;49.302;9.306;2023-05-20T00:39:37;13.30;91.90
8707;DHT22;4390;49.302;9.306;2023-05-20T00:42:03;13.30;92.10
8707;DHT22;4390;49.302;9.306;2023-05-20T00:44:30;13.10;92.30
8707;DHT22;4390;49.302;9.306;2023-05-20T00:46:57;13.10;92.20
8707;DHT22;4390;49.302;9.306;2023-05-20T00:49:24;13.20;92.00
8707;DHT22;4390;49.302;9.306;2023-05-20T00:51:51;13.30;92.10
8707;DHT22;4390;49.302;9.306;2023-05-20T00:54:18;13.20;91.90
8707;DHT22;4390;49.302;9.306;2023-05-20T00:56:46;13.30;92.00
8707;DHT22;4390;49.302;9.306;2023-05-20T00:59:13;13.40;92.00
8707;DHT22;4390;49.302;9.306;2023-05-20T01:01:40;13.40;91.70
8707;DHT22;4390;49.302;9.306;2023-05-20T01:04:08;13.50;91.80
8707;DHT22;4390;49.302;9.306;2023-05-20T01:06:35;13.50;91.60
8707;DHT22;4390;49.302;9.306;2023-05-20T01:09:03;13.50;91.60
8707;DHT22;4390;49.302;9.306;2023-05-20T01:11:46;13.50;91.80
8707;DHT22;4390;49.302;9.306;2023-05-20T01:14:15;13.60;91.60
8707;DHT22;4390;49.302;9.306;2023-05-20T01:16:44;13.50;91.70
8707;DHT22;4390;49.302;9.306;2023-05-20T01:19:25;13.50;91.90
8707;DHT22;4390;49.302;9.306;2023-05-20T01:21:55;13.50;92.00
8707;DHT22;4390;49.302;9.306;2023-05-20T01:24:23;13.50;91.80
8707;DHT22;4390;49.302;9.306;2023-05-20T01:26:50;13.60;91.60
8707;DHT22;4390;49.302;9.306;2023-05-20T01:29:17;13.60;91.50
8707;DHT22;4390;49.302;9.306;2023-05-20T01:31:45;13.60;91.60
8707;DHT22;4390;49.302;9.306;2023-05-20T01:34:13;13.80;91.40
8707;DHT22;4390;49.302;9.306;2023-05-20T01:36:40;13.80;91.20
8707;DHT22;4390;49.302;9.306;2023-05-20T01:39:08;13.80;91.20
8707;DHT22;4390;49.302;9.306;2023-05-20T01:41:35;13.90;91.10
8707;DHT22;4390;49.302;9.306;2023-05-20T01:44:03;13.80;91.10
8707;DHT22;4390;49.302;9.306;2023-05-20T01:46:33;13.70;91.30
8707;DHT22;4390;49.302;9.306;2023-05-20T01:49:01;13.60;91.80
8707;DHT22;4390;49.302;9.306;2023-05-20T01:51:28;13.60;91.80
8707;DHT22;4390;49.302;9.306;2023-05-20T01:53:56;13.70;91.60
8707;DHT22;4390;49.302;9.306;2023-05-20T01:56:23;13.70;91.70
8707;DHT22;4390;49.302;9.306;2023-05-20T01:58:50;13.60;91.70
8707;DHT22;4390;49.302;9.306;2023-05-20T02:01:17;13.80;91.60
8707;DHT22;4390;49.302;9.306;2023-05-20T02:03:43;13.70;91.60
8707;DHT22;4390;49.302;9.306;2023-05-20T02:06:10;13.50;92.00
8707;DHT22;4390;49.302;9.306;2023-05-20T02:08:37;13.40;92.50
8707;DHT22;4390;49.302;9.306;2023-05-20T02:11:04;13.50;92.40
8707;DHT22;4390;49.302;9.306;2023-05-20T02:13:31;13.70;91.90
8707;DHT22;4390;49.302;9.306;2023-05-20T02:15:58;13.70;91.80
8707;DHT22;4390;49.302;9.306;2023-05-20T02:18:24;13.70;91.80
8707;DHT22;4390;49.302;9.306;2023-05-20T02:20:52;13.80;91.70
8707;DHT22;4390;49.302;9.306;2023-05-20T02:23:19;13.70;91.70
8707;DHT22;4390;49.302;9.306;2023-05-20T02:25:46;13.80;91.80
8707;DHT22;4390;49.302;9.306;2023-05-20T02:28:13;13.70;91.90
8707;DHT22;4390;49.302;9.306;2023-05-20T02:30:41;13.90;91.60
8707;DHT22;4390;49.302;9.306;2023-05-20T02:33:08;13.80;91.50
8707;DHT22;4390;49.302;9.306;2023-05-20T02:35:35;13.70;91.80
8707;DHT22;4390;49.302;9.306;2023-05-20T02:38:02;13.60;91.90
8707;DHT22;4390;49.302;9.306;2023-05-20T02:40:29;13.50;92.30
8707;DHT22;4390;49.302;9.306;2023-05-20T02:42:56;13.50;92.30
8707;DHT22;4390;49.302;9.306;2023-05-20T02:45:23;13.50;92.40
8707;DHT22;4390;49.302;9.306;2023-05-20T02:47:50;13.40;92.60
8707;DHT22;4390;49.302;9.306;2023-05-20T02:50:17;13.40;92.80
8707;DHT22;4390;49.302;9.306;2023-05-20T02:52:44;13.40;92.80
8707;DHT22;4390;49.302;9.306;2023-05-20T02:55:12;13.40;92.70
8707;DHT22;4390;49.302;9.306;2023-05-20T02:57:39;13.40;92.70
8707;DHT22;4390;49.302;9.306;2023-05-20T03:00:08;13.30;93.10
8707;DHT22;4390;49.302;9.306;2023-05-20T03:02:38;13.20;93.20
8707;DHT22;4390;49.302;9.306;2023-05-20T03:05:06;13.20;93.10
8707;DHT22;4390;49.302;9.306;2023-05-20T03:07:34;13.20;93.20
8707;DHT22;4390;49.302;9.306;2023-05-20T03:10:02;13.20;93.20
8707;DHT22;4390;49.302;9.306;2023-05-20T03:12:30;13.50;93.00
8707;DHT22;4390;49.302;9.306;2023-05-20T03:14:57;13.50;92.70
8707;DHT22;4390;49.302;9.306;2023-05-20T03:17:24;13.50;92.90
8707;DHT22;4390;49.302;9.306;2023-05-20T03:19:51;13.40;93.00
8707;DHT22;4390;49.302;9.306;2023-05-20T03:22:18;13.50;92.90
8707;DHT22;4390;49.302;9.306;2023-05-20T03:24:45;13.70;92.60
8707;DHT22;4390;49.302;9.306;2023-05-20T03:27:12;13.70;92.50
8707;DHT22;4390;49.302;9.306;2023-05-20T03:29:39;13.80;92.30
8707;DHT22;4390;49.302;9.306;2023-05-20T03:32:07;13.70;92.50
8707;DHT22;4390;49.302;9.306;2023-05-20T03:34:36;13.70;92.50
8707;DHT22;4390;49.302;9.306;2023-05-20T03:37:04;13.90;92.30
8707;DHT22;4390;49.302;9.306;2023-05-20T03:39:30;14.00;92.10
8707;DHT22;4390;49.302;9.306;2023-05-20T03:41:58;14.10;92.00
8707;DHT22;4390;49.302;9.306;2023-05-20T03:44:25;14.10;91.90
8707;DHT22;4390;49.302;9.306;2023-05-20T03:46:53;14.10;91.80
8707;DHT22;4390;49.302;9.306;2023-05-20T03:49:20;14.00;92.10
8707;DHT22;4390;49.302;9.306;2023-05-20T03:51:47;13.70;92.70
8707;DHT22;4390;49.302;9.306;2023-05-20T03:54:14;13.80;93.00
8707;DHT22;4390;49.302;9.306;2023-05-20T03:56:46;13.90;92.60
8707;DHT22;4390;49.302;9.306;2023-05-20T03:59:14;14.00;92.30
8707;DHT22;4390;49.302;9.306;2023-05-20T04:01:41;14.00;92.30
8707;DHT22;4390;49.302;9.306;2023-05-20T04:04:09;13.90;92.40
8707;DHT22;4390;49.302;9.306;2023-05-20T04:06:36;14.00;92.40
8707;DHT22;4390;49.302;9.306;2023-05-20T04:09:03;14.10;92.30
8707;DHT22;4390;49.302;9.306;2023-05-20T04:11:30;14.00;92.50
8707;DHT22;4390;49.302;9.306;2023-05-20T04:13:57;14.00;92.50
8707;DHT22;4390;49.302;9.306;2023-05-20T04:16:26;14.10;92.40
8707;DHT22;4390;49.302;9.306;2023-05-20T04:18:55;13.90;92.60
8707;DHT22;4390;49.302;9.306;2023-05-20T04:21:24;13.90;92.80
8707;DHT22;4390;49.302;9.306;2023-05-20T04:23:51;14.00;92.70
8707;DHT22;4390;49.302;9.306;2023-05-20T04:26:18;14.00;92.70
8707;DHT22;4390;49.302;9.306;2023-05-20T04:28:46;14.00;92.80
8707;DHT22;4390;49.302;9.306;2023-05-20T04:31:15;14.00;92.90
8707;DHT22;4390;49.302;9.306;2023-05-20T04:33:42;13.90;92.90
8707;DHT22;4390;49.302;9.306;2023-05-20T04:36:10;13.90;93.00
8707;DHT22;4390;49.302;9.306;2023-05-20T04:38:42;14.00;93.20
8707;DHT22;4390;49.302;9.306;2023-05-20T04:41:10;14.10;92.90
8707;DHT22;4390;49.302;9.306;2023-05-20T04:43:37;14.10;92.70
8707;DHT22;4390;49.302;9.306;2023-05-20T04:46:05;14.20;92.80
8707;DHT22;4390;49.302;9.306;2023-05-20T04:48:33;14.30;92.50
8707;DHT22;4390;49.302;9.306;2023-05-20T04:51:00;14.30;92.40
8707;DHT22;4390;49.302;9.306;2023-05-20T04:53:26;14.30;92.40
8707;DHT22;4390;49.302;9.306;2023-05-20T04:55:54;14.30;92.40
8707;DHT22;4390;49.302;9.306;2023-05-20T04:58:23;14.30;92.40
8707;DHT22;4390;49.302;9.306;2023-05-20T05:00:51;14.30;92.60
8707;DHT22;4390;49.302;9.306;2023-05-20T05:03:18;14.40;92.40
8707;DHT22;4390;49.302;9.306;2023-05-20T05:05:45;14.30;92.70
8707;DHT22;4390;49.302;9.306;2023-05-20T05:08:13;14.20;92.70
8707;DHT22;4390;49.302;9.306;2023-05-20T05:10:46;14.20;92.90
8707;DHT22;4390;49.302;9.306;2023-05-20T05:13:13;14.30;92.70
8707;DHT22;4390;49.302;9.306;2023-05-20T05:15:40;14.30;92.70
8707;DHT22;4390;49.302;9.306;2023-05-20T05:18:07;14.20;93.10
8707;DHT22;4390;49.302;9.306;2023-05-20T05:20:35;14.10;93.30
8707;DHT22;4390;49.302;9.306;2023-05-20T05:23:02;13.90;93.70
8707;DHT22;4390;49.302;9.306;2023-05-20T05:25:29;13.90;93.90
8707;DHT22;4390;49.302;9.306;2023-05-20T05:27:58;13.90;93.80
8707;DHT22;4390;49.302;9.306;2023-05-20T05:30:25;14.00;93.80
8707;DHT22;4390;49.302;9.306;2023-05-20T05:32:52;14.10;93.70
8707;DHT22;4390;49.302;9.306;2023-05-20T05:35:20;14.10;93.60
8707;DHT22;4390;49.302;9.306;2023-05-20T05:37:47;14.10;93.70
8707;DHT22;4390;49.302;9.306;2023-05-20T05:40:14;14.30;93.40
8707;DHT22;4390;49.302;9.306;2023-05-20T05:42:41;14.30;93.50
8707;DHT22;4390;49.302;9.306;2023-05-20T05:45:09;14.30;93.40
8707;DHT22;4390;49.302;9.306;2023-05-20T05:47:36;14.40;93.30
8707;DHT22;4390;49.302;9.306;2023-05-20T05:50:03;14.50;93.10
8707;DHT22;4390;49.302;9.306;2023-05-20T05:52:32;14.40;93.10
8707;DHT22;4390;49.302;9.306;2023-05-20T05:55:01;14.60;93.10
8707;DHT22;4390;49.302;9.306;2023-05-20T05:57:28;14.80;92.60
8707;DHT22;4390;49.302;9.306;2023-05-20T05:59:56;14.80;92.50
8707;DHT22;4390;49.302;9.306;2023-05-20T06:02:24;14.80;92.80
8707;DHT22;4390;49.302;9.306;2023-05-20T06:04:51;14.70;93.30
8707;DHT22;4390;49.302;9.306;2023-05-20T06:07:18;14.80;93.40
8707;DHT22;4390;49.302;9.306;2023-05-20T06:09:45;15.00;93.10
8707;DHT22;4390;49.302;9.306;2023-05-20T06:12:12;14.80;92.90
8707;DHT22;4390;49.302;9.306;2023-05-20T06:14:39;14.60;93.30
8707;DHT22;4390;49.302;9.306;2023-05-20T06:17:06;14.60;93.70
8707;DHT22;4390;49.302;9.306;2023-05-20T06:19:33;14.90;93.10
8707;DHT22;4390;49.302;9.306;2023-05-20T06:22:01;15.10;92.60
8707;DHT22;4390;49.302;9.306;2023-05-20T06:24:27;15.20;92.00
8707;DHT22;4390;49.302;9.306;2023-05-20T06:26:54;15.10;92.20
8707;DHT22;4390;49.302;9.306;2023-05-20T06:29:22;15.20;92.30
8707;DHT22;4390;49.302;9.306;2023-05-20T06:31:49;15.20;92.50
8707;DHT22;4390;49.302;9.306;2023-05-20T06:34:16;15.10;92.40
8707;DHT22;4390;49.302;9.306;2023-05-20T06:36:43;15.10;92.70
8707;DHT22;4390;49.302;9.306;2023-05-20T06:39:09;15.20;92.40
8707;DHT22;4390;49.302;9.306;2023-05-20T06:41:42;15.40;91.80
8707;DHT22;4390;49.302;9.306;2023-05-20T06:44:09;15.40;91.70
8707;DHT22;4390;49.302;9.306;2023-05-20T06:46:36;15.40;92.10
8707;DHT22;4390;49.302;9.306;2023-05-20T06:49:05;15.40;91.90
8707;DHT22;4390;49.302;9.306;2023-05-20T06:51:33;15.40;91.90
8707;DHT22;4390;49.302;9.306;2023-05-20T06:54:00;15.30;92.20
8707;DHT22;4390;49.302;9.306;2023-05-20T06:56:29;15.30;92.10
8707;DHT22;4390;49.302;9.306;2023-05-20T06:58:56;15.50;92.10
8707;DHT22;4390;49.302;9.306;2023-05-20T07:01:22;15.60;91.80
8707;DHT22;4390;49.302;9.306;2023-05-20T07:03:49;15.60;91.60
8707;DHT22;4390;49.302;9.306;2023-05-20T07:06:17;15.80;91.60
8707;DHT22;4390;49.302;9.306;2023-05-20T07:08:44;15.60;91.70
8707;DHT22;4390;49.302;9.306;2023-05-20T07:11:12;15.50;92.20
8707;DHT22;4390;49.302;9.306;2023-05-20T07:13:38;15.60;92.00
8707;DHT22;4390;49.302;9.306;2023-05-20T07:16:05;15.60;92.00
8707;DHT22;4390;49.302;9.306;2023-05-20T07:18:34;15.80;91.80
8707;DHT22;4390;49.302;9.306;2023-05-20T07:21:02;15.80;91.30
8707;DHT22;4390;49.302;9.306;2023-05-20T07:23:47;15.70;91.80
8707;DHT22;4390;49.302;9.306;2023-05-20T07:26:14;15.50;91.60
8707;DHT22;4390;49.302;9.306;2023-05-20T07:28:41;15.50;91.80
8707;DHT22;4390;49.302;9.306;2023-05-20T07:31:09;15.50;92.00
8707;DHT22;4390;49.302;9.306;2023-05-20T07:33:46;15.50;92.20
8707;DHT22;4390;49.302;9.306;2023-05-20T07:36:13;15.70;92.20
8707;DHT22;4390;49.302;9.306;2023-05-20T07:38:43;15.90;91.80
8707;DHT22;4390;49.302;9.306;2023-05-20T07:41:27;16.00;91.50
8707;DHT22;4390;49.302;9.306;2023-05-20T07:43:54;16.20;91.10
8707;DHT22;4390;49.302;9.306;2023-05-20T07:46:21;16.20;91.20
8707;DHT22;4390;49.302;9.306;2023-05-20T07:48:48;16.30;91.20
8707;DHT22;4390;49.302;9.306;2023-05-20T07:51:15;16.50;90.80
8707;DHT22;4390;49.302;9.306;2023-05-20T07:53:42;16.80;90.50
8707;DHT22;4390;49.302;9.306;2023-05-20T07:56:09;17.00;89.90
8707;DHT22;4390;49.302;9.306;2023-05-20T07:58:39;17.20;89.70
8707;DHT22;4390;49.302;9.306;2023-05-20T08:01:06;17.30;89.10
8707;DHT22;4390;49.302;9.306;2023-05-20T08:03:35;17.40;88.60
8707;DHT22;4390;49.302;9.306;2023-05-20T08:06:07;17.40;88.60
8707;DHT22;4390;49.302;9.306;2023-05-20T08:08:34;17.40;88.60
8707;DHT22;4390;49.302;9.306;2023-05-20T08:11:07;17.60;88.50
8707;DHT22;4390;49.302;9.306;2023-05-20T08:13:34;17.60;87.90
8707;DHT22;4390;49.302;9.306;2023-05-20T08:16:03;17.40;88.10
8707;DHT22;4390;49.302;9.306;2023-05-20T08:18:33;17.40;88.30
8707;DHT22;4390;49.302;9.306;2023-05-20T08:21:00;17.60;88.30
8707;DHT22;4390;49.302;9.306;2023-05-20T08:23:27;17.70;87.70
8707;DHT22;4390;49.302;9.306;2023-05-20T08:25:54;17.40;87.80
8707;DHT22;4390;49.302;9.306;2023-05-20T08:28:24;17.30;88.40
8707;DHT22;4390;49.302;9.306;2023-05-20T08:30:51;17.20;88.70
8707;DHT22;4390;49.302;9.306;2023-05-20T08:33:18;17.30;88.60
8707;DHT22;4390;49.302;9.306;2023-05-20T08:35:47;17.30;88.70
8707;DHT22;4390;49.302;9.306;2023-05-20T08:38:14;17.50;89.00
8707;DHT22;4390;49.302;9.306;2023-05-20T08:40:42;17.80;88.70
8707;DHT22;4390;49.302;9.306;2023-05-20T08:43:14;18.10;87.80
8707;DHT22;4390;49.302;9.306;2023-05-20T08:45:41;18.30;87.10
8707;DHT22;4390;49.302;9.306;2023-05-20T08:48:11;18.40;87.00
8707;DHT22;4390;49.302;9.306;2023-05-20T08:50:40;18.30;87.00
8707;DHT22;4390;49.302;9.306;2023-05-20T08:53:08;18.40;87.30
8707;DHT22;4390;49.302;9.306;2023-05-20T08:55:48;18.70;87.00
8707;DHT22;4390;49.302;9.306;2023-05-20T08:58:18;18.90;86.30
8707;DHT22;4390;49.302;9.306;2023-05-20T09:00:47;19.00;85.60
8707;DHT22;4390;49.302;9.306;2023-05-20T09:03:14;18.90;85.90
8707;DHT22;4390;49.302;9.306;2023-05-20T09:05:41;19.00;85.90
8707;DHT22;4390;49.302;9.306;2023-05-20T09:08:10;19.20;85.60
8707;DHT22;4390;49.302;9.306;2023-05-20T09:10:39;19.20;85.20
8707;DHT22;4390;49.302;9.306;2023-05-20T09:13:08;19.10;85.40
8707;DHT22;4390;49.302;9.306;2023-05-20T09:15:37;19.10;85.10
8707;DHT22;4390;49.302;9.306;2023-05-20T09:18:06;19.20;85.00
8707;DHT22;4390;49.302;9.306;2023-05-20T09:20:37;19.20;85.00
8707;DHT22;4390;49.302;9.306;2023-05-20T09:23:07;19.30;85.20
8707;DHT22;4390;49.302;9.306;2023-05-20T09:25:35;19.40;85.40
8707;DHT22;4390;49.302;9.306;2023-05-20T09:28:07;19.60;85.30
8707;DHT22;4390;49.302;9.306;2023-05-20T09:30:35;19.90;85.00
8707;DHT22;4390;49.302;9.306;2023-05-20T09:33:04;20.10;84.30
8707;DHT22;4390;49.302;9.306;2023-05-20T09:35:34;20.30;83.70
8707;DHT22;4390;49.302;9.306;2023-05-20T09:38:07;20.40;83.90
8707;DHT22;4390;49.302;9.306;2023-05-20T09:40:34;20.30;83.70
8707;DHT22;4390;49.302;9.306;2023-05-20T09:43:07;20.30;83.70
8707;DHT22;4390;49.302;9.306;2023-05-20T09:45:36;20.40;83.60
8707;DHT22;4390;49.302;9.306;2023-05-20T09:48:07;20.70;83.30
8707;DHT22;4390;49.302;9.306;2023-05-20T09:50:36;20.70;83.20
8707;DHT22;4390;49.302;9.306;2023-05-20T09:53:05;20.90;82.70
8707;DHT22;4390;49.302;9.306;2023-05-20T09:55:33;21.00;81.90
8707;DHT22;4390;49.302;9.306;2023-05-20T09:58:02;21.10;82.40
8707;DHT22;4390;49.302;9.306;2023-05-20T10:00:29;21.50;81.50
8707;DHT22;4390;49.302;9.306;2023-05-20T10:02:57;21.60;81.70
8707;DHT22;4390;49.302;9.306;2023-05-20T10:05:34;21.40;81.30
8707;DHT22;4390;49.302;9.306;2023-05-20T10:13:59;21.80;81.60
8707;DHT22;4390;49.302;9.306;2023-05-20T10:16:32;22.00;80.70
8707;DHT22;4390;49.302;9.306;2023-05-20T10:19:27;22.20;80.40
8707;DHT22;4390;49.302;9.306;2023-05-20T10:22:03;22.40;79.10
8707;DHT22;4390;49.302;9.306;2023-05-20T10:24:35;22.20;79.20
8707;DHT22;4390;49.302;9.306;2023-05-20T10:27:07;22.30;79.40
8707;DHT22;4390;49.302;9.306;2023-05-20T10:29:49;22.10;79.50
8707;DHT22;4390;49.302;9.306;2023-05-20T10:32:32;21.90;79.80
8707;DHT22;4390;49.302;9.306;2023-05-20T10:35:06;22.10;79.70
8707;DHT22;4390;49.302;9.306;2023-05-20T10:37:44;22.50;79.20
8707;DHT22;4390;49.302;9.306;2023-05-20T10:40:15;22.80;79.40
8707;DHT22;4390;49.302;9.306;2023-05-20T10:42:44;23.00;78.40
8707;DHT22;4390;49.302;9.306;2023-05-20T10:45:12;22.90;78.80
8707;DHT22;4390;49.302;9.306;2023-05-20T10:47:54;22.80;78.40
8707;DHT22;4390;49.302;9.306;2023-05-20T10:50:34;22.90;78.50
8707;DHT22;4390;49.302;9.306;2023-05-20T10:53:06;22.30;79.10
8707;DHT22;4390;49.302;9.306;2023-05-20T10:55:52;22.10;79.50
8707;DHT22;4390;49.302;9.306;2023-05-20T10:58:22;22.40;79.40
8707;DHT22;4390;49.302;9.306;2023-05-20T11:00:54;22.70;78.60
8707;DHT22;4390;49.302;9.306;2023-05-20T11:03:21;23.10;78.40
8707;DHT22;4390;49.302;9.306;2023-05-20T11:05:50;23.00;78.90
8707;DHT22;4390;49.302;9.306;2023-05-20T11:08:17;23.00;78.80
8707;DHT22;4390;49.302;9.306;2023-05-20T11:10:57;23.00;78.80
8707;DHT22;4390;49.302;9.306;2023-05-20T11:13:25;23.10;77.90
8707;DHT22;4390;49.302;9.306;2023-05-20T11:15:52;23.00;78.30
8707;DHT22;4390;49.302;9.306;2023-05-20T11:18:19;23.10;78.80
8707;DHT22;4390;49.302;9.306;2023-05-20T11:20:46;23.20;78.40
8707;DHT22;4390;49.302;9.306;2023-05-20T11:23:14;23.20;78.90
8707;DHT22;4390;49.302;9.306;2023-05-20T11:25:41;23.40;78.60
8707;DHT22;4390;49.302;9.306;2023-05-20T11:28:14;23.60;78.20
8707;DHT22;4390;49.302;9.306;2023-05-20T11:30:42;24.00;77.60
8707;DHT22;4390;49.302;9.306;2023-05-20T11:33:11;24.20;77.00
8707;DHT22;4390;49.302;9.306;2023-05-20T11:35:45;24.20;77.00
8707;DHT22;4390;49.302;9.306;2023-05-20T11:38:13;24.10;77.40
8707;DHT22;4390;49.302;9.306;2023-05-20T11:40:44;23.60;77.20
8707;DHT22;4390;49.302;9.306;2023-05-20T11:43:17;23.40;77.60
8707;DHT22;4390;49.302;9.306;2023-05-20T11:45:46;23.30;77.70
8707;DHT22;4390;49.302;9.306;2023-05-20T11:48:13;23.20;77.80
8707;DHT22;4390;49.302;9.306;2023-05-20T11:50:43;23.30;77.80
8707;DHT22;4390;49.302;9.306;2023-05-20T11:53:13;23.40;77.80
8707;DHT22;4390;49.302;9.306;2023-05-20T11:55:54;23.70;77.40
8707;DHT22;4390;49.302;9.306;2023-05-20T11:58:23;23.70;77.00
8707;DHT22;4390;49.302;9.306;2023-05-20T12:00:50;23.80;77.40
8707;DHT22;4390;49.302;9.306;2023-05-20T12:03:31;23.90;77.70
8707;DHT22;4390;49.302;9.306;2023-05-20T12:06:00;23.90;77.20
8707;DHT22;4390;49.302;9.306;2023-05-20T12:08:28;23.70;77.20
8707;DHT22;4390;49.302;9.306;2023-05-20T12:10:55;23.60;77.30
8707;DHT22;4390;49.302;9.306;2023-05-20T12:13:22;23.40;77.30
8707;DHT22;4390;49.302;9.306;2023-05-20T12:15:49;23.40;77.40
8707;DHT22;4390;49.302;9.306;2023-05-20T12:18:16;23.20;77.80
8707;DHT22;4390;49.302;9.306;2023-05-20T12:20:43;23.30;77.80
8707;DHT22;4390;49.302;9.306;2023-05-20T12:23:09;23.70;77.60
8707;DHT22;4390;49.302;9.306;2023-05-20T12:25:36;24.00;76.60
8707;DHT22;4390;49.302;9.306;2023-05-20T12:28:03;24.00;76.50
8707;DHT22;4390;49.302;9.306;2023-05-20T12:30:30;24.10;75.50
8707;DHT22;4390;49.302;9.306;2023-05-20T12:32:57;24.10;75.90
8707;DHT22;4390;49.302;9.306;2023-05-20T12:35:35;24.00;77.00
8707;DHT22;4390;49.302;9.306;2023-05-20T12:38:01;24.00;77.20
8707;DHT22;4390;49.302;9.306;2023-05-20T12:40:29;23.90;76.70
8707;DHT22;4390;49.302;9.306;2023-05-20T12:42:55;23.60;76.30
8707;DHT22;4390;49.302;9.306;2023-05-20T12:45:23;23.40;77.40
8707;DHT22;4390;49.302;9.306;2023-05-20T12:47:50;23.40;77.50
8707;DHT22;4390;49.302;9.306;2023-05-20T12:50:17;23.40;76.70
8707;DHT22;4390;49.302;9.306;2023-05-20T12:52:44;23.60;77.30
8707;DHT22;4390;49.302;9.306;2023-05-20T12:55:11;23.90;76.90
8707;DHT22;4390;49.302;9.306;2023-05-20T12:57:44;24.20;76.10
8707;DHT22;4390;49.302;9.306;2023-05-20T13:00:12;24.50;76.10
8707;DHT22;4390;49.302;9.306;2023-05-20T13:02:40;24.80;75.30
8707;DHT22;4390;49.302;9.306;2023-05-20T13:05:09;25.30;75.20
8707;DHT22;4390;49.302;9.306;2023-05-20T13:07:36;25.70;74.40
8707;DHT22;4390;49.302;9.306;2023-05-20T13:10:04;26.10;73.50
8707;DHT22;4390;49.302;9.306;2023-05-20T13:12:31;26.40;73.30
8707;DHT22;4390;49.302;9.306;2023-05-20T13:14:58;26.40;73.50
8707;DHT22;4390;49.302;9.306;2023-05-20T13:17:24;26.10;73.20
8707;DHT22;4390;49.302;9.306;2023-05-20T13:19:52;25.90;73.70
8707;DHT22;4390;49.302;9.306;2023-05-20T13:22:19;25.80;73.10
8707;DHT22;4390;49.302;9.306;2023-05-20T13:24:46;25.80;73.20
8707;DHT22;4390;49.302;9.306;2023-05-20T13:27:13;25.80;73.20
8707;DHT22;4390;49.302;9.306;2023-05-20T13:29:40;25.70;73.90
8707;DHT22;4390;49.302;9.306;2023-05-20T13:32:09;25.60;73.60
8707;DHT22;4390;49.302;9.306;2023-05-20T13:34:36;25.40;74.40
8707;DHT22;4390;49.302;9.306;2023-05-20T13:37:04;25.20;74.70
8707;DHT22;4390;49.302;9.306;2023-05-20T13:39:31;24.90;74.10
8707;DHT22;4390;49.302;9.306;2023-05-20T13:41:58;24.90;75.00
8707;DHT22;4390;49.302;9.306;2023-05-20T13:44:25;25.00;74.70
8707;DHT22;4390;49.302;9.306;2023-05-20T13:46:52;25.00;74.20
8707;DHT22;4390;49.302;9.306;2023-05-20T13:49:20;25.10;74.70
8707;DHT22;4390;49.302;9.306;2023-05-20T13:51:47;25.10;74.60
8707;DHT22;4390;49.302;9.306;2023-05-20T13:54:14;25.20;74.80
8707;DHT22;4390;49.302;9.306;2023-05-20T13:56:44;25.20;74.60
8707;DHT22;4390;49.302;9.306;2023-05-20T13:59:13;24.90;75.20
8707;DHT22;4390;49.302;9.306;2023-05-20T14:01:40;24.80;75.00
8707;DHT22;4390;49.302;9.306;2023-05-20T14:04:11;24.60;75.70
8707;DHT22;4390;49.302;9.306;2023-05-20T14:06:38;24.40;75.60
8707;DHT22;4390;49.302;9.306;2023-05-20T14:09:06;24.20;75.90
8707;DHT22;4390;49.302;9.306;2023-05-20T14:11:36;24.30;76.20
8707;DHT22;4390;49.302;9.306;2023-05-20T14:14:03;24.20;76.20
8707;DHT22;4390;49.302;9.306;2023-05-20T14:16:30;24.30;76.60
8707;DHT22;4390;49.302;9.306;2023-05-20T14:18:57;24.60;76.70
8707;DHT22;4390;49.302;9.306;2023-05-20T14:21:25;25.00;75.90
8707;DHT22;4390;49.302;9.306;2023-05-20T14:23:51;25.00;76.10
8707;DHT22;4390;49.302;9.306;2023-05-20T14:26:18;25.00;75.70
8707;DHT22;4390;49.302;9.306;2023-05-20T14:28:45;25.10;75.70
8707;DHT22;4390;49.302;9.306;2023-05-20T14:31:12;24.80;75.40
8707;DHT22;4390;49.302;9.306;2023-05-20T14:33:39;24.60;75.40
8707;DHT22;4390;49.302;9.306;2023-05-20T14:36:06;24.50;75.90
8707;DHT22;4390;49.302;9.306;2023-05-20T14:38:33;24.50;76.10
8707;DHT22;4390;49.302;9.306;2023-05-20T14:41:00;24.60;75.80
8707;DHT22;4390;49.302;9.306;2023-05-20T14:43:26;24.50;76.00
8707;DHT22;4390;49.302;9.306;2023-05-20T14:45:53;24.10;76.80
8707;DHT22;4390;49.302;9.306;2023-05-20T14:48:20;24.10;76.70
8707;DHT22;4390;49.302;9.306;2023-05-20T14:50:47;24.30;76.20
8707;DHT22;4390;49.302;9.306;2023-05-20T14:53:16;24.50;76.30
8707;DHT22;4390;49.302;9.306;2023-05-20T14:55:43;24.60;76.60
8707;DHT22;4390;49.302;9.306;2023-05-20T14:58:10;24.80;75.70
8707;DHT22;4390;49.302;9.306;2023-05-20T15:00:37;24.60;75.40
8707;DHT22;4390;49.302;9.306;2023-05-20T15:03:04;24.50;75.50
8707;DHT22;4390;49.302;9.306;2023-05-20T15:05:31;24.40;75.60
8707;DHT22;4390;49.302;9.306;2023-05-20T15:07:58;24.30;75.90
8707;DHT22;4390;49.302;9.306;2023-05-20T15:10:25;24.20;76.30
8707;DHT22;4390;49.302;9.306;2023-05-20T15:12:52;24.40;75.60
8707;DHT22;4390;49.302;9.306;2023-05-20T15:15:20;24.60;75.70
8707;DHT22;4390;49.302;9.306;2023-05-20T15:17:47;24.80;75.70
8707;DHT22;4390;49.302;9.306;2023-05-20T15:20:14;25.00;75.40
8707;DHT22;4390;49.302;9.306;2023-05-20T15:22:42;25.00;75.90
8707;DHT22;4390;49.302;9.306;2023-05-20T15:25:09;25.00;74.70
8707;DHT22;4390;49.302;9.306;2023-05-20T15:27:36;24.80;74.90
8707;DHT22;4390;49.302;9.306;2023-05-20T15:30:03;24.80;74.90
8707;DHT22;4390;49.302;9.306;2023-05-20T15:32:30;24.90;75.10
8707;DHT22;4390;49.302;9.306;2023-05-20T15:34:57;24.80;75.00
8707;DHT22;4390;49.302;9.306;2023-05-20T15:37:24;24.50;75.30
8707;DHT22;4390;49.302;9.306;2023-05-20T15:39:51;24.60;75.40
8707;DHT22;4390;49.302;9.306;2023-05-20T15:42:17;24.60;75.40
8707;DHT22;4390;49.302;9.306;2023-05-20T15:44:44;24.60;75.50
8707;DHT22;4390;49.302;9.306;2023-05-20T15:47:12;24.60;75.30
8707;DHT22;4390;49.302;9.306;2023-05-20T15:49:38;24.30;75.50
8707;DHT22;4390;49.302;9.306;2023-05-20T15:52:05;24.00;76.10
8707;DHT22;4390;49.302;9.306;2023-05-20T15:54:32;24.00;76.70
8707;DHT22;4390;49.302;9.306;2023-05-20T15:56:59;24.00;76.20
8707;DHT22;4390;49.302;9.306;2023-05-20T15:59:28;24.00;76.30
8707;DHT22;4390;49.302;9.306;2023-05-20T16:01:54;24.00;76.20
8707;DHT22;4390;49.302;9.306;2023-05-20T16:04:21;24.00;76.50
8707;DHT22;4390;49.302;9.306;2023-05-20T16:06:48;24.00;76.60
8707;DHT22;4390;49.302;9.306;2023-05-20T16:09:15;23.50;77.10
8707;DHT22;4390;49.302;9.306;2023-05-20T16:11:42;23.30;77.50
8707;DHT22;4390;49.302;9.306;2023-05-20T16:14:09;23.20;77.90